This is the latest recevied weather packets stored in our database for station/object K4VEB. If no packets are shown the sender has not sent any weather packets the latest 10 day(s).
| Time | Temp. | Humidity | Pressure | Rain* | Wind** | Luminosity | Snow |
|---|---|---|---|---|---|---|---|
| 1778005004 | 31.11° C | 38% | 1015.6 hPa | 0 mm | - | 957 W/m² | - |
| 1778004702 | 30° C | 41% | 1015.7 hPa | 0 mm | - | 962 W/m² | - |
| 1778004398 | 27.78° C | 48% | 1015.9 hPa | 0 mm | - | 989 W/m² | - |
| 1778004095 | 27.78° C | 49% | 1015.8 hPa | 0 mm | - | 231 W/m² | - |
| 1778003791 | 28.33° C | 47% | 1015.8 hPa | 0 mm | - | 155 W/m² | - |
| 1778003488 | 28.89° C | 45% | 1015.9 hPa | 0 mm | - | 161 W/m² | - |
| 1778003184 | 27.78° C | 48% | 1015.9 hPa | 0 mm | - | 651 W/m² | - |
| 1778002881 | 27.78° C | 48% | 1016.1 hPa | 0 mm | - | 200 W/m² | - |
| 1778002578 | 28.33° C | 50% | 1016.2 hPa | 0 mm | - | 191 W/m² | - |
| 1778002274 | 28.33° C | 49% | 1016.2 hPa | 0 mm | - | 865 W/m² | - |
| 1778001972 | 28.33° C | 49% | 1016 hPa | 0 mm | - | 644 W/m² | - |
| 1778001669 | 28.33° C | 51% | 1016.1 hPa | 0 mm | - | 630 W/m² | - |
| 1778001369 | 28.33° C | 50% | 1016.1 hPa | 0 mm | - | 753 W/m² | - |
| 1778001066 | 27.22° C | 50% | 1016.5 hPa | 0 mm | - | 731 W/m² | - |
| 1778000763 | 27.22° C | 52% | 1016.4 hPa | 0 mm | - | 262 W/m² | - |
| 1778000460 | 27.78° C | 52% | 1016.5 hPa | 0 mm | - | 198 W/m² | - |
| 1778000154 | 28.33° C | 51% | 1016.5 hPa | 0 mm | - | 1011 W/m² | - |
| 1777999851 | 28.33° C | 51% | 1016.6 hPa | 0 mm | - | 953 W/m² | - |
| 1777999546 | 27.22° C | 53% | 1016.6 hPa | 0 mm | - | 907 W/m² | - |
| 1777999244 | 27.22° C | 54% | 1016.7 hPa | 0 mm | - | 1006 W/m² | - |
| 1777998943 | 27.22° C | 54% | 1016.8 hPa | 0 mm | - | 294 W/m² | - |
| 1777998640 | 28.33° C | 52% | 1016.7 hPa | 0 mm | - | 270 W/m² | - |
| 1777998338 | 28.33° C | 51% | 1016.9 hPa | 0 mm | - | 968 W/m² | - |
| 1777998035 | 28.33° C | 51% | 1016.8 hPa | 0 mm | - | 923 W/m² | - |
| 1777997732 | 27.78° C | 50% | 1016.7 hPa | 0 mm | - | 885 W/m² | - |
* Rain latest hour (hover to see other rain measurements)
** Current wind speed in m/s (hover to see current wind gust speed)